Time;durP1;ratioP1;P1;durP2;ratioP2;P2;SDS_P1;SDS_P2;PMS_P1;PMS_P2;Temp;Humidity;BMP_temperature;BMP_pressure;BME280_temperature;BME280_humidity;BME280_pressure;Samples;Min_cycle;Max_cycle;Signal;HPM_P1;HPM_P2
2022/11/03 00:02:24;;;;;;;;;;;11.20;99.90;;;;;;5104488;28;19931;-64
2022/11/03 00:04:49;;;;;;;;;;;11.30;99.90;;;;;;5087877;28;20386;-65
2022/11/03 00:07:21;;;;;;;;;;;11.30;99.90;;;;;;5070808;28;19967;-65
2022/11/03 00:09:47;;;;;;;;;;;11.30;99.90;;;;;;5087391;28;19932;-65
2022/11/03 00:12:12;;;;;;;;;;;11.20;99.90;;;;;;5070721;28;19925;-64
2022/11/03 00:14:38;;;;;;;;;;;11.30;99.90;;;;;;5104805;28;19924;-64
2022/11/03 00:17:04;;;;;;;;;;;11.30;99.90;;;;;;5087567;28;19932;-68
2022/11/03 00:19:29;;;;;;;;;;;11.30;99.90;;;;;;5072229;28;19925;-66
2022/11/03 00:21:57;;;;;;;;;;;11.30;99.90;;;;;;5071102;28;19924;-65
2022/11/03 00:24:22;;;;;;;;;;;11.30;99.90;;;;;;5104384;28;19925;-63
2022/11/03 00:26:48;;;;;;;;;;;11.30;99.90;;;;;;5071571;28;19938;-66
2022/11/03 00:29:14;;;;;;;;;;;11.30;99.90;;;;;;5070789;28;19924;-64
2022/11/03 00:31:40;;;;;;;;;;;11.30;99.90;;;;;;5087808;28;19931;-65
2022/11/03 00:34:06;;;;;;;;;;;11.30;99.90;;;;;;5104621;28;20013;-67
2022/11/03 00:36:33;;;;;;;;;;;11.30;99.90;;;;;;5071552;28;20008;-64
2022/11/03 00:38:59;;;;;;;;;;;11.30;99.90;;;;;;5070972;28;19925;-64
2022/11/03 00:41:25;;;;;;;;;;;11.20;99.90;;;;;;5103939;28;19974;-63
2022/11/03 00:43:51;;;;;;;;;;;11.30;99.90;;;;;;5070467;28;19934;-63
2022/11/03 00:46:17;;;;;;;;;;;11.20;99.90;;;;;;5072357;28;20070;-63
2022/11/03 00:48:43;;;;;;;;;;;11.30;99.90;;;;;;5075080;28;20287;-65
2022/11/03 00:51:15;;;;;;;;;;;11.30;99.90;;;;;;5074360;28;19924;-69
2022/11/03 00:53:42;;;;;;;;;;;11.20;99.90;;;;;;5074977;28;19935;-64
2022/11/03 00:56:14;;;;;;;;;;;11.20;99.90;;;;;;5075717;28;19925;-64
2022/11/03 00:58:41;;;;;;;;;;;11.20;99.90;;;;;;5076023;28;19928;-64
2022/11/03 01:01:08;;;;;;;;;;;11.10;99.90;;;;;;5091057;28;19936;-64
2022/11/03 01:03:36;;;;;;;;;;;11.20;99.90;;;;;;5074882;28;19928;-67
2022/11/03 01:08:48;;;;;;;;;;;11.10;99.90;;;;;;5074991;28;20520;-67
2022/11/03 01:13:59;;;;;;;;;;;11.10;99.90;;;;;;5075187;28;20030;-67
2022/11/03 01:16:25;;;;;;;;;;;11.10;99.90;;;;;;5074563;28;19964;-66
2022/11/03 01:18:50;;;;;;;;;;;11.10;99.90;;;;;;5107603;28;19924;-66
2022/11/03 01:21:16;;;;;;;;;;;11.10;99.90;;;;;;5107731;28;19924;-67
2022/11/03 01:23:42;;;;;;;;;;;11.10;99.90;;;;;;5075010;28;20028;-66
2022/11/03 01:26:08;;;;;;;;;;;11.00;99.90;;;;;;5074738;28;19929;-65
2022/11/03 01:28:35;;;;;;;;;;;11.00;99.90;;;;;;5074299;28;19925;-65
2022/11/03 01:31:07;;;;;;;;;;;11.00;99.90;;;;;;5074676;28;20052;-65
2022/11/03 01:33:33;;;;;;;;;;;11.00;99.90;;;;;;5090185;28;19924;-65
2022/11/03 01:35:58;;;;;;;;;;;11.00;99.90;;;;;;5074820;28;19925;-66
2022/11/03 01:38:24;;;;;;;;;;;11.00;99.90;;;;;;5074017;28;19924;-66
2022/11/03 01:40:50;;;;;;;;;;;11.00;99.90;;;;;;5107402;28;20375;-66
2022/11/03 01:43:17;;;;;;;;;;;11.00;99.90;;;;;;5074307;28;19931;-67
2022/11/03 01:45:43;;;;;;;;;;;11.00;99.90;;;;;;5074605;28;19924;-65
2022/11/03 01:48:09;;;;;;;;;;;11.00;99.90;;;;;;5107483;28;19991;-66
2022/11/03 01:50:35;;;;;;;;;;;11.00;99.90;;;;;;5073906;28;20347;-65
2022/11/03 01:53:00;;;;;;;;;;;11.00;99.90;;;;;;5074404;28;19928;-66
2022/11/03 01:55:28;;;;;;;;;;;11.00;99.90;;;;;;5072750;28;19924;-65
2022/11/03 01:58:00;;;;;;;;;;;11.00;99.90;;;;;;5105809;28;20020;-65
2022/11/03 02:00:25;;;;;;;;;;;11.00;99.90;;;;;;5073234;28;20019;-65
2022/11/03 02:02:52;;;;;;;;;;;11.00;99.90;;;;;;5074074;28;19987;-65
2022/11/03 02:05:18;;;;;;;;;;;11.00;99.90;;;;;;5073503;28;19924;-66
2022/11/03 02:07:47;;;;;;;;;;;11.00;99.90;;;;;;5074001;28;19924;-65
2022/11/03 02:10:12;;;;;;;;;;;11.00;99.90;;;;;;5074051;28;19977;-65
2022/11/03 02:12:38;;;;;;;;;;;10.90;99.90;;;;;;5073491;28;20003;-66
2022/11/03 02:15:09;;;;;;;;;;;10.90;99.90;;;;;;5106364;28;20272;-65
2022/11/03 02:17:34;;;;;;;;;;;10.90;99.90;;;;;;5072607;28;20337;-68
2022/11/03 02:20:10;;;;;;;;;;;11.00;99.90;;;;;;5074077;28;19932;-66
2022/11/03 02:22:41;;;;;;;;;;;11.00;99.90;;;;;;5073772;28;19932;-66
2022/11/03 02:25:09;;;;;;;;;;;10.90;99.90;;;;;;5073852;28;20294;-65
2022/11/03 02:27:35;;;;;;;;;;;10.90;99.90;;;;;;5072976;28;19950;-66
2022/11/03 02:30:00;;;;;;;;;;;10.90;99.90;;;;;;5073820;28;19925;-67
2022/11/03 02:32:30;;;;;;;;;;;10.90;99.90;;;;;;5073446;28;19932;-65
2022/11/03 02:34:58;;;;;;;;;;;10.90;99.90;;;;;;5073864;28;20019;-65
2022/11/03 02:37:29;;;;;;;;;;;10.90;99.90;;;;;;5071870;28;20280;-66
2022/11/03 02:40:01;;;;;;;;;;;10.90;99.90;;;;;;5073639;28;20046;-66
2022/11/03 02:42:28;;;;;;;;;;;10.90;99.90;;;;;;5072331;28;19978;-66
2022/11/03 02:44:56;;;;;;;;;;;10.90;99.90;;;;;;5072183;28;20339;-65
2022/11/03 02:47:22;;;;;;;;;;;10.80;99.90;;;;;;5073445;28;19924;-65
2022/11/03 02:49:48;;;;;;;;;;;10.80;99.90;;;;;;5073205;28;19924;-65
2022/11/03 02:52:33;;;;;;;;;;;10.80;99.90;;;;;;5073415;28;19932;-66
2022/11/03 02:55:00;;;;;;;;;;;10.80;99.90;;;;;;5073375;28;20023;-65
2022/11/03 02:57:28;;;;;;;;;;;10.80;99.90;;;;;;5072587;28;20452;-66
2022/11/03 03:00:01;;;;;;;;;;;10.80;99.90;;;;;;5073083;28;19925;-66
2022/11/03 03:02:32;;;;;;;;;;;10.80;99.90;;;;;;5072996;28;19932;-67
2022/11/03 03:04:59;;;;;;;;;;;10.90;99.90;;;;;;5073161;28;20287;-66
2022/11/03 03:07:28;;;;;;;;;;;10.90;99.90;;;;;;5088725;28;19932;-66
2022/11/03 03:10:20;;;;;;;;;;;10.90;99.90;;;;;;5071526;28;19924;-66
2022/11/03 03:12:46;;;;;;;;;;;10.80;99.90;;;;;;5072188;28;19930;-66
2022/11/03 03:15:13;;;;;;;;;;;10.90;99.90;;;;;;5072560;28;19925;-67
2022/11/03 03:17:49;;;;;;;;;;;10.90;99.90;;;;;;5072603;28;19928;-66
2022/11/03 03:20:27;;;;;;;;;;;10.90;99.90;;;;;;5088797;28;19932;-66
2022/11/03 03:22:55;;;;;;;;;;;10.90;99.90;;;;;;5072386;28;19985;-67
2022/11/03 03:25:28;;;;;;;;;;;10.90;99.90;;;;;;5105503;28;19947;-66
2022/11/03 03:28:01;;;;;;;;;;;10.90;99.90;;;;;;5105154;28;19925;-66
2022/11/03 03:30:29;;;;;;;;;;;11.00;99.90;;;;;;5105482;28;19925;-66
2022/11/03 03:32:55;;;;;;;;;;;10.90;99.90;;;;;;5072511;28;19932;-66
2022/11/03 03:35:22;;;;;;;;;;;10.90;99.90;;;;;;5072662;28;20020;-66
2022/11/03 03:37:50;;;;;;;;;;;11.00;99.90;;;;;;5072276;28;20007;-66
2022/11/03 03:40:18;;;;;;;;;;;10.90;99.90;;;;;;5072334;28;19975;-67
2022/11/03 03:42:45;;;;;;;;;;;11.00;99.90;;;;;;5087789;28;20020;-66
2022/11/03 03:45:11;;;;;;;;;;;11.00;99.90;;;;;;5072484;28;19932;-66
2022/11/03 03:47:37;;;;;;;;;;;11.00;99.90;;;;;;5071988;28;20280;-67
2022/11/03 03:50:02;;;;;;;;;;;11.10;99.90;;;;;;5087969;28;19928;-67
2022/11/03 03:52:28;;;;;;;;;;;11.10;99.90;;;;;;5072217;28;19925;-67
2022/11/03 03:54:54;;;;;;;;;;;11.00;99.90;;;;;;5071910;28;19931;-66
2022/11/03 03:57:22;;;;;;;;;;;11.00;99.90;;;;;;5071146;28;19928;-66
2022/11/03 03:59:47;;;;;;;;;;;11.10;99.90;;;;;;5104265;28;19925;-66
2022/11/03 04:02:13;;;;;;;;;;;11.10;99.90;;;;;;5104738;28;20282;-66
2022/11/03 04:04:39;;;;;;;;;;;11.10;99.90;;;;;;5071260;28;19925;-65
2022/11/03 04:09:49;;;;;;;;;;;11.00;99.90;;;;;;5071502;28;19925;-66
2022/11/03 04:23:11;;;;;;;;;;;11.00;99.90;;;;;;5071531;28;19924;-65
2022/11/03 04:25:37;;;;;;;;;;;11.00;99.90;;;;;;5071402;28;19931;-66
2022/11/03 04:28:13;;;;;;;;;;;11.00;99.90;;;;;;5072035;28;19928;-65
2022/11/03 04:30:38;;;;;;;;;;;11.00;99.90;;;;;;5070090;28;19975;-66
2022/11/03 04:33:09;;;;;;;;;;;11.00;99.90;;;;;;5071717;28;19924;-65
2022/11/03 04:35:35;;;;;;;;;;;11.00;99.90;;;;;;5104657;28;19978;-66
2022/11/03 04:38:02;;;;;;;;;;;10.90;99.90;;;;;;5087041;28;19924;-66
2022/11/03 04:40:28;;;;;;;;;;;11.00;99.90;;;;;;5071720;28;19979;-66
2022/11/03 04:42:54;;;;;;;;;;;11.00;99.90;;;;;;5071105;28;20395;-65
2022/11/03 04:45:19;;;;;;;;;;;11.00;99.90;;;;;;5071500;28;20053;-65
2022/11/03 04:47:45;;;;;;;;;;;11.00;99.90;;;;;;5071133;28;20432;-65
2022/11/03 04:50:14;;;;;;;;;;;10.90;99.90;;;;;;5071763;28;19925;-65
2022/11/03 04:52:40;;;;;;;;;;;11.00;99.90;;;;;;5070360;28;19928;-67
2022/11/03 04:55:12;;;;;;;;;;;11.00;99.90;;;;;;5069735;28;20188;-65
2022/11/03 04:57:39;;;;;;;;;;;11.00;99.90;;;;;;5071214;28;20452;-65
2022/11/03 05:00:06;;;;;;;;;;;10.90;99.90;;;;;;5069676;28;19939;-66
2022/11/03 05:02:32;;;;;;;;;;;10.90;99.90;;;;;;5071000;28;20428;-65
2022/11/03 05:04:58;;;;;;;;;;;11.00;99.90;;;;;;5070889;28;19924;-65
2022/11/03 05:07:35;;;;;;;;;;;11.00;99.90;;;;;;5071343;28;19929;-65
2022/11/03 05:10:02;;;;;;;;;;;11.00;99.90;;;;;;5071019;28;19924;-65
2022/11/03 05:12:28;;;;;;;;;;;11.00;99.90;;;;;;5070639;28;19931;-65
2022/11/03 05:14:54;;;;;;;;;;;11.00;99.90;;;;;;5070334;28;20011;-65
2022/11/03 05:17:23;;;;;;;;;;;10.90;99.90;;;;;;5071596;28;19932;-65
2022/11/03 05:19:51;;;;;;;;;;;11.00;99.90;;;;;;5071152;28;19977;-65
2022/11/03 05:22:19;;;;;;;;;;;10.90;99.90;;;;;;5071299;28;20283;-66
2022/11/03 05:24:44;;;;;;;;;;;10.90;99.90;;;;;;5070574;28;19936;-65
2022/11/03 05:27:19;;;;;;;;;;;10.90;99.90;;;;;;5071209;28;19928;-65
2022/11/03 05:29:46;;;;;;;;;;;10.90;99.90;;;;;;5070771;28;20027;-66
2022/11/03 05:32:15;;;;;;;;;;;10.80;99.90;;;;;;5072061;28;20018;-65
2022/11/03 05:34:45;;;;;;;;;;;10.90;99.90;;;;;;5074892;28;19935;-65
2022/11/03 05:37:11;;;;;;;;;;;10.80;99.90;;;;;;5074894;28;19931;-66
2022/11/03 05:39:39;;;;;;;;;;;10.90;99.90;;;;;;5074933;28;19924;-66
2022/11/03 05:42:23;;;;;;;;;;;10.80;99.90;;;;;;5074485;28;20065;-66
2022/11/03 05:44:49;;;;;;;;;;;10.80;99.90;;;;;;5074448;28;19977;-65
2022/11/03 05:47:30;;;;;;;;;;;10.80;99.90;;;;;;5074572;28;19924;-66
2022/11/03 05:49:59;;;;;;;;;;;10.70;99.90;;;;;;5107476;28;20303;-66
2022/11/03 05:52:26;;;;;;;;;;;10.80;99.90;;;;;;5074777;28;19931;-66
2022/11/03 05:54:53;;;;;;;;;;;10.70;99.90;;;;;;5074208;28;20380;-65
2022/11/03 05:57:19;;;;;;;;;;;10.70;99.90;;;;;;5074140;28;19931;-64
2022/11/03 05:59:46;;;;;;;;;;;10.70;99.90;;;;;;5074205;28;19925;-65
2022/11/03 06:02:30;;;;;;;;;;;10.70;99.90;;;;;;5074115;28;19979;-65
2022/11/03 06:04:55;;;;;;;;;;;10.70;99.90;;;;;;5089360;28;19925;-65
2022/11/03 06:07:25;;;;;;;;;;;10.60;99.90;;;;;;5074509;28;19932;-66
2022/11/03 06:09:51;;;;;;;;;;;10.60;99.90;;;;;;5072748;28;19925;-66
2022/11/03 06:12:18;;;;;;;;;;;10.60;99.90;;;;;;5073120;28;19924;-66
2022/11/03 06:14:44;;;;;;;;;;;10.60;99.90;;;;;;5074533;28;19924;-67
2022/11/03 06:17:17;;;;;;;;;;;10.60;99.90;;;;;;5073948;28;19950;-66
2022/11/03 06:19:46;;;;;;;;;;;10.60;99.90;;;;;;5074155;28;19925;-65
2022/11/03 06:22:22;;;;;;;;;;;10.60;99.90;;;;;;5073886;28;19939;-66
2022/11/03 06:24:48;;;;;;;;;;;10.60;99.90;;;;;;5090069;28;19940;-68
2022/11/03 06:27:22;;;;;;;;;;;10.60;99.90;;;;;;5074065;28;19924;-67
2022/11/03 06:29:52;;;;;;;;;;;10.50;99.90;;;;;;5107033;28;19931;-67
2022/11/03 06:32:18;;;;;;;;;;;10.60;99.90;;;;;;5073257;28;19974;-68
2022/11/03 06:34:46;;;;;;;;;;;10.60;99.90;;;;;;5089663;28;19970;-66
2022/11/03 06:37:20;;;;;;;;;;;10.60;99.90;;;;;;5073294;28;19988;-66
2022/11/03 06:39:47;;;;;;;;;;;10.60;99.90;;;;;;5073067;28;20293;-66
2022/11/03 06:42:18;;;;;;;;;;;10.60;99.90;;;;;;5073101;28;20484;-66
2022/11/03 06:44:45;;;;;;;;;;;10.60;99.90;;;;;;5072583;28;20034;-64
2022/11/03 06:47:19;;;;;;;;;;;10.70;99.90;;;;;;5073434;28;19924;-64
2022/11/03 06:49:44;;;;;;;;;;;10.70;99.90;;;;;;5072407;28;19930;-65
2022/11/03 06:52:29;;;;;;;;;;;10.70;99.90;;;;;;5105986;28;20314;-65
2022/11/03 06:55:20;;;;;;;;;;;10.70;99.90;;;;;;5073105;28;19925;-66
2022/11/03 06:57:46;;;;;;;;;;;10.40;99.90;;;;;;5073427;28;19925;-65
2022/11/03 07:00:19;;;;;;;;;;;10.70;99.90;;;;;;5072619;28;20278;-65
2022/11/03 07:03:14;;;;;;;;;;;10.70;99.90;;;;;;5073299;28;20010;-65
2022/11/03 07:05:39;;;;;;;;;;;10.80;99.90;;;;;;5072333;28;20005;-65
2022/11/03 07:08:18;;;;;;;;;;;10.80;99.90;;;;;;5071868;28;19925;-65
2022/11/03 07:10:44;;;;;;;;;;;10.80;99.90;;;;;;5073029;28;19925;-66
2022/11/03 07:13:13;;;;;;;;;;;10.90;99.90;;;;;;5105592;28;20367;-64
2022/11/03 07:15:39;;;;;;;;;;;10.90;99.90;;;;;;5072672;28;20004;-65
2022/11/03 07:18:20;;;;;;;;;;;11.00;99.90;;;;;;5105176;28;20379;-65
2022/11/03 07:20:46;;;;;;;;;;;10.90;99.90;;;;;;5072631;28;20019;-65
2022/11/03 07:23:13;;;;;;;;;;;11.00;99.90;;;;;;5072294;28;19979;-65
2022/11/03 07:25:39;;;;;;;;;;;11.00;99.90;;;;;;5071381;28;19976;-65
2022/11/03 07:28:04;;;;;;;;;;;11.00;99.90;;;;;;5072705;28;19982;-66
2022/11/03 07:30:33;;;;;;;;;;;11.10;99.90;;;;;;5072814;28;19929;-65
2022/11/03 07:33:09;;;;;;;;;;;11.10;99.90;;;;;;5072511;28;19932;-66
2022/11/03 07:35:37;;;;;;;;;;;11.30;99.90;;;;;;5072803;28;19924;-65
2022/11/03 07:38:08;;;;;;;;;;;11.30;99.90;;;;;;5105064;28;20000;-66
2022/11/03 07:40:34;;;;;;;;;;;11.40;99.90;;;;;;5105207;28;19969;-65
2022/11/03 07:43:01;;;;;;;;;;;11.40;99.90;;;;;;5105153;28;19929;-65
2022/11/03 07:45:32;;;;;;;;;;;11.30;99.90;;;;;;5072472;28;19924;-65
2022/11/03 07:47:58;;;;;;;;;;;11.40;99.90;;;;;;5105052;28;19924;-65
2022/11/03 07:50:23;;;;;;;;;;;11.40;99.90;;;;;;5072008;28;19924;-65
2022/11/03 07:52:49;;;;;;;;;;;11.40;99.90;;;;;;5072119;28;19925;-65
2022/11/03 07:55:14;;;;;;;;;;;11.40;99.90;;;;;;5072027;28;19979;-66
2022/11/03 07:57:40;;;;;;;;;;;11.40;99.90;;;;;;5070990;28;19929;-68
2022/11/03 08:00:08;;;;;;;;;;;11.40;99.90;;;;;;5087255;28;19925;-69
2022/11/03 08:02:45;;;;;;;;;;;11.50;99.90;;;;;;5087677;28;19973;-70
2022/11/03 08:05:11;;;;;;;;;;;11.50;99.90;;;;;;5071684;28;20294;-70
2022/11/03 08:07:36;;;;;;;;;;;11.60;99.90;;;;;;5087971;28;19925;-70
2022/11/03 08:10:02;;;;;;;;;;;11.60;99.90;;;;;;5070704;28;19932;-69
2022/11/03 08:12:27;;;;;;;;;;;11.60;99.90;;;;;;5070478;28;20023;-69
2022/11/03 08:14:53;;;;;;;;;;;11.60;99.90;;;;;;5087920;28;19967;-70
2022/11/03 08:17:19;;;;;;;;;;;11.70;99.90;;;;;;5104604;28;19931;-70
2022/11/03 08:19:44;;;;;;;;;;;11.70;99.90;;;;;;5072111;28;19963;-71
2022/11/03 08:22:10;;;;;;;;;;;11.70;99.90;;;;;;5070651;28;20383;-70
2022/11/03 08:24:35;;;;;;;;;;;11.80;99.90;;;;;;5104340;28;19975;-68
2022/11/03 08:27:02;;;;;;;;;;;11.80;99.90;;;;;;5070918;28;19925;-68
2022/11/03 08:29:27;;;;;;;;;;;11.90;99.90;;;;;;5071497;28;19920;-68
2022/11/03 08:31:53;;;;;;;;;;;12.00;99.90;;;;;;5070653;28;19925;-70
2022/11/03 08:34:19;;;;;;;;;;;12.10;99.90;;;;;;5070020;28;20027;-72
2022/11/03 08:36:44;;;;;;;;;;;12.20;99.90;;;;;;5087652;28;19924;-70
2022/11/03 08:39:10;;;;;;;;;;;12.20;99.90;;;;;;5103583;28;19929;-70
2022/11/03 08:41:36;;;;;;;;;;;12.30;99.90;;;;;;5070676;28;19972;-70
2022/11/03 08:44:01;;;;;;;;;;;12.40;99.90;;;;;;5087114;28;20284;-70
2022/11/03 08:46:27;;;;;;;;;;;12.50;99.90;;;;;;5104316;28;19931;-70
2022/11/03 08:48:53;;;;;;;;;;;12.60;99.90;;;;;;5104769;28;19931;-70
2022/11/03 08:51:18;;;;;;;;;;;12.70;99.90;;;;;;5071504;28;20463;-70
2022/11/03 08:53:45;;;;;;;;;;;12.80;99.90;;;;;;5087158;28;19926;-68
2022/11/03 08:56:11;;;;;;;;;;;12.80;99.90;;;;;;5104136;28;20275;-71
2022/11/03 08:58:37;;;;;;;;;;;12.70;99.90;;;;;;5087523;28;19932;-71
2022/11/03 09:01:03;;;;;;;;;;;13.00;99.90;;;;;;5104078;28;19924;-70
2022/11/03 09:03:28;;;;;;;;;;;13.00;99.90;;;;;;5069389;28;20027;-70
2022/11/03 09:05:54;;;;;;;;;;;13.00;99.90;;;;;;5071544;28;19970;-69
2022/11/03 09:08:20;;;;;;;;;;;13.00;99.90;;;;;;5106667;28;19928;-70
2022/11/03 09:10:45;;;;;;;;;;;13.00;99.90;;;;;;5108622;28;19928;-70
2022/11/03 09:13:11;;;;;;;;;;;13.00;99.90;;;;;;5074388;28;20322;-70
2022/11/03 09:15:36;;;;;;;;;;;13.00;99.90;;;;;;5074029;28;19924;-70
2022/11/03 09:18:02;;;;;;;;;;;13.00;99.90;;;;;;5074446;28;20050;-70
2022/11/03 09:20:28;;;;;;;;;;;13.00;99.90;;;;;;5075071;28;20011;-69
2022/11/03 09:22:53;;;;;;;;;;;13.00;99.90;;;;;;5074454;28;19920;-69
2022/11/03 09:25:19;;;;;;;;;;;13.00;99.90;;;;;;5090152;28;19932;-69
2022/11/03 09:27:44;;;;;;;;;;;13.00;99.90;;;;;;5074249;28;19931;-69
2022/11/03 09:30:10;;;;;;;;;;;13.10;99.90;;;;;;5075487;28;19929;-70
2022/11/03 09:32:36;;;;;;;;;;;13.10;99.90;;;;;;5074973;28;20025;-69
2022/11/03 09:35:02;;;;;;;;;;;13.10;99.90;;;;;;5108143;28;19924;-70
2022/11/03 09:37:28;;;;;;;;;;;13.20;99.90;;;;;;5074491;28;19924;-69
2022/11/03 09:39:54;;;;;;;;;;;13.20;99.90;;;;;;5107568;28;20003;-70
2022/11/03 09:42:20;;;;;;;;;;;13.20;99.90;;;;;;5090569;28;19928;-70
2022/11/03 09:44:47;;;;;;;;;;;13.20;99.90;;;;;;5107668;28;20011;-69
2022/11/03 09:47:24;;;;;;;;;;;13.30;99.90;;;;;;5107837;28;20282;-70
2022/11/03 09:49:50;;;;;;;;;;;13.30;99.90;;;;;;5073634;28;19925;-69
2022/11/03 09:52:19;;;;;;;;;;;13.30;99.90;;;;;;5074920;28;19924;-69
2022/11/03 09:54:44;;;;;;;;;;;13.40;99.90;;;;;;5090556;28;20022;-69
2022/11/03 09:57:11;;;;;;;;;;;13.40;99.90;;;;;;5107228;28;20451;-69
2022/11/03 09:59:37;;;;;;;;;;;13.50;99.90;;;;;;5073928;28;19925;-69
2022/11/03 10:02:02;;;;;;;;;;;13.50;99.90;;;;;;5106587;28;20035;-69
2022/11/03 10:04:28;;;;;;;;;;;13.60;99.90;;;;;;5106431;28;20098;-69
2022/11/03 10:06:55;;;;;;;;;;;13.30;99.90;;;;;;5090380;28;19925;-69
2022/11/03 10:09:22;;;;;;;;;;;13.70;99.90;;;;;;5106929;28;19936;-70
2022/11/03 10:11:48;;;;;;;;;;;13.80;99.90;;;;;;5106826;28;19978;-70
2022/11/03 10:14:16;;;;;;;;;;;13.90;99.90;;;;;;5073123;28;20437;-70
2022/11/03 10:16:42;;;;;;;;;;;13.90;99.90;;;;;;5099137;28;19994;-69
2022/11/03 10:19:08;;;;;;;;;;;13.90;99.90;;;;;;5087399;28;19924;-70
2022/11/03 10:21:34;;;;;;;;;;;14.00;99.90;;;;;;5088450;28;20127;-69
2022/11/03 10:24:00;;;;;;;;;;;14.00;99.90;;;;;;5071879;28;19935;-70
2022/11/03 10:26:26;;;;;;;;;;;14.10;99.90;;;;;;5073671;28;20314;-69
2022/11/03 10:28:59;;;;;;;;;;;14.20;99.90;;;;;;5073116;28;19931;-69
2022/11/03 10:31:30;;;;;;;;;;;14.20;99.90;;;;;;5072624;28;19928;-70
2022/11/03 10:33:56;;;;;;;;;;;14.20;99.90;;;;;;5072600;28;19932;-68
2022/11/03 10:36:26;;;;;;;;;;;14.20;99.90;;;;;;5106763;28;19925;-69
2022/11/03 10:38:52;;;;;;;;;;;14.20;99.90;;;;;;5073637;28;19970;-69
2022/11/03 10:41:19;;;;;;;;;;;14.20;99.90;;;;;;5072772;28;20329;-70
2022/11/03 10:43:58;;;;;;;;;;;14.30;99.90;;;;;;5072389;28;20086;-69
2022/11/03 10:46:24;;;;;;;;;;;14.30;99.90;;;;;;5089682;28;19940;-69
2022/11/03 10:49:05;;;;;;;;;;;14.30;99.90;;;;;;5106079;28;20342;-69
2022/11/03 10:51:34;;;;;;;;;;;14.30;99.90;;;;;;5072162;28;19929;-68
2022/11/03 10:54:00;;;;;;;;;;;14.40;99.90;;;;;;5072331;28;19928;-68
2022/11/03 10:56:26;;;;;;;;;;;14.40;99.90;;;;;;5072456;28;20277;-69
2022/11/03 10:58:52;;;;;;;;;;;14.50;99.90;;;;;;5073105;28;19931;-69
2022/11/03 11:01:17;;;;;;;;;;;14.60;99.90;;;;;;5073319;28;20007;-69
2022/11/03 11:03:43;;;;;;;;;;;14.60;99.90;;;;;;5073112;28;19925;-69
2022/11/03 11:06:20;;;;;;;;;;;14.70;99.90;;;;;;5073211;28;19924;-69
2022/11/03 11:08:46;;;;;;;;;;;14.80;99.90;;;;;;5072926;28;19984;-69
2022/11/03 11:11:18;;;;;;;;;;;14.80;99.90;;;;;;5073404;28;20327;-70
2022/11/03 11:13:43;;;;;;;;;;;14.90;99.90;;;;;;5073174;28;19939;-69
2022/11/03 11:16:28;;;;;;;;;;;14.90;99.90;;;;;;5071643;28;19924;-68
2022/11/03 11:18:54;;;;;;;;;;;15.00;99.90;;;;;;5105261;28;19932;-68
2022/11/03 11:21:19;;;;;;;;;;;15.00;99.90;;;;;;5104648;28;19928;-68
2022/11/03 11:23:46;;;;;;;;;;;15.10;99.90;;;;;;5103188;28;19924;-69
2022/11/03 11:26:16;;;;;;;;;;;15.20;99.90;;;;;;5072806;28;19925;-69
2022/11/03 11:28:43;;;;;;;;;;;15.30;99.90;;;;;;5088329;28;19926;-69
2022/11/03 11:31:27;;;;;;;;;;;15.40;99.90;;;;;;5071073;28;20424;-69
2022/11/03 11:34:07;;;;;;;;;;;15.40;99.90;;;;;;5105281;28;19942;-69
2022/11/03 11:36:33;;;;;;;;;;;15.50;99.90;;;;;;5071494;28;19932;-70
2022/11/03 11:39:00;;;;;;;;;;;15.50;99.90;;;;;;5103174;28;20256;-70
2022/11/03 11:41:44;;;;;;;;;;;15.50;99.90;;;;;;5086180;28;19925;-68
2022/11/03 11:44:28;;;;;;;;;;;15.50;99.90;;;;;;5072208;28;20284;-69
2022/11/03 11:46:55;;;;;;;;;;;15.50;99.90;;;;;;5070160;28;19920;-69
2022/11/03 11:49:20;;;;;;;;;;;15.60;99.90;;;;;;5101362;28;19978;-71
2022/11/03 11:51:46;;;;;;;;;;;15.50;99.90;;;;;;5069358;28;20018;-68
2022/11/03 11:54:15;;;;;;;;;;;15.50;99.90;;;;;;5088274;28;19924;-69
2022/11/03 11:56:45;;;;;;;;;;;15.50;99.90;;;;;;5104604;28;19924;-68
2022/11/03 11:59:18;;;;;;;;;;;15.50;99.90;;;;;;5071349;28;20014;-69
2022/11/03 12:01:47;;;;;;;;;;;15.50;99.90;;;;;;5070225;28;20063;-68
2022/11/03 12:04:19;;;;;;;;;;;15.50;99.90;;;;;;5072087;28;19929;-68
2022/11/03 12:06:44;;;;;;;;;;;15.50;99.90;;;;;;5070633;28;19954;-68
2022/11/03 12:09:17;;;;;;;;;;;15.50;99.90;;;;;;5087982;28;20028;-68
2022/11/03 12:11:48;;;;;;;;;;;15.60;99.90;;;;;;5087618;28;20291;-69
2022/11/03 12:14:20;;;;;;;;;;;15.60;99.90;;;;;;5105136;28;20315;-67
2022/11/03 12:16:46;;;;;;;;;;;15.60;99.90;;;;;;5071935;28;20074;-68
2022/11/03 12:19:31;;;;;;;;;;;15.60;99.90;;;;;;5070536;28;19931;-68
2022/11/03 12:21:57;;;;;;;;;;;15.60;99.90;;;;;;5070773;28;20275;-67
2022/11/03 12:24:33;;;;;;;;;;;15.60;99.90;;;;;;5071493;28;19924;-70
2022/11/03 12:26:59;;;;;;;;;;;15.50;99.90;;;;;;5104413;28;19932;-70
2022/11/03 12:29:27;;;;;;;;;;;15.60;99.90;;;;;;5087759;28;19924;-70
2022/11/03 12:31:53;;;;;;;;;;;15.60;99.90;;;;;;5087780;28;19953;-70
2022/11/03 12:34:19;;;;;;;;;;;15.50;99.90;;;;;;5071077;28;20023;-69
2022/11/03 12:36:44;;;;;;;;;;;15.50;99.90;;;;;;5087390;28;20442;-69
2022/11/03 12:39:10;;;;;;;;;;;15.50;99.90;;;;;;5104746;28;19925;-69
2022/11/03 12:41:36;;;;;;;;;;;15.60;99.90;;;;;;5086671;28;19947;-68
2022/11/03 12:44:02;;;;;;;;;;;15.50;99.90;;;;;;5087369;28;19924;-68
2022/11/03 12:46:27;;;;;;;;;;;15.50;99.90;;;;;;5053574;28;19924;-66
2022/11/03 12:48:53;;;;;;;;;;;15.50;99.90;;;;;;5086570;28;20375;-69
2022/11/03 12:51:19;;;;;;;;;;;15.50;99.90;;;;;;5087468;28;19936;-68
2022/11/03 12:53:45;;;;;;;;;;;15.50;99.90;;;;;;5070822;28;19925;-69
2022/11/03 12:56:12;;;;;;;;;;;15.50;99.90;;;;;;5072059;28;19970;-69
2022/11/03 12:58:37;;;;;;;;;;;15.50;99.90;;;;;;5087611;28;19931;-69
2022/11/03 13:01:04;;;;;;;;;;;15.40;99.90;;;;;;5070605;28;19924;-69
2022/11/03 13:03:30;;;;;;;;;;;15.50;99.90;;;;;;5071916;28;20118;-69
2022/11/03 13:05:56;;;;;;;;;;;15.40;99.90;;;;;;5071675;28;19924;-69
2022/11/03 13:08:21;;;;;;;;;;;15.40;99.90;;;;;;5104454;28;19924;-69
2022/11/03 13:10:47;;;;;;;;;;;15.40;99.90;;;;;;5053630;28;19947;-69
2022/11/03 13:13:12;;;;;;;;;;;15.50;99.90;;;;;;5071765;28;19977;-69
2022/11/03 13:15:38;;;;;;;;;;;15.50;99.90;;;;;;5087628;28;19970;-69
2022/11/03 13:18:07;;;;;;;;;;;15.50;99.90;;;;;;5104372;28;19928;-69
2022/11/03 13:20:32;;;;;;;;;;;15.50;99.90;;;;;;5070819;28;19986;-69
2022/11/03 13:22:58;;;;;;;;;;;15.50;99.90;;;;;;5070273;28;20395;-67
2022/11/03 13:25:24;;;;;;;;;;;15.50;99.90;;;;;;5070521;28;19991;-68
2022/11/03 13:27:52;;;;;;;;;;;15.60;99.90;;;;;;5071519;28;19981;-68
2022/11/03 13:30:18;;;;;;;;;;;15.50;99.90;;;;;;5071749;28;19938;-69
2022/11/03 13:32:44;;;;;;;;;;;15.60;99.90;;;;;;5104804;28;20018;-69
2022/11/03 13:35:09;;;;;;;;;;;15.50;99.90;;;;;;5087291;28;20015;-68
2022/11/03 13:37:35;;;;;;;;;;;15.50;99.90;;;;;;5087339;28;20376;-69
2022/11/03 13:40:01;;;;;;;;;;;15.40;99.90;;;;;;5071517;28;20359;-69
2022/11/03 13:42:26;;;;;;;;;;;15.50;99.90;;;;;;5087265;28;20029;-69
2022/11/03 13:44:52;;;;;;;;;;;15.40;99.90;;;;;;5070921;28;19925;-69
2022/11/03 13:47:17;;;;;;;;;;;15.40;99.90;;;;;;5104636;28;19925;-69
2022/11/03 13:49:43;;;;;;;;;;;15.40;99.90;;;;;;5070609;28;19925;-69
2022/11/03 13:52:09;;;;;;;;;;;15.50;99.90;;;;;;5104131;28;19951;-70
2022/11/03 13:54:34;;;;;;;;;;;15.40;99.90;;;;;;5106744;28;19924;-68
2022/11/03 13:57:00;;;;;;;;;;;15.40;99.90;;;;;;5074802;28;19924;-68
2022/11/03 13:59:26;;;;;;;;;;;15.40;99.90;;;;;;5107744;28;20023;-70
2022/11/03 14:01:51;;;;;;;;;;;15.40;99.90;;;;;;5073212;28;20009;-68
2022/11/03 14:04:17;;;;;;;;;;;15.30;99.90;;;;;;5074878;28;19924;-68
2022/11/03 14:06:43;;;;;;;;;;;15.40;99.90;;;;;;5090675;28;20008;-68
2022/11/03 14:09:09;;;;;;;;;;;15.30;99.90;;;;;;5107433;28;19928;-68
2022/11/03 14:14:18;;;;;;;;;;;15.30;99.90;;;;;;5074966;28;19924;-69
2022/11/03 14:16:44;;;;;;;;;;;15.30;99.90;;;;;;5090396;28;20325;-68
2022/11/03 14:19:10;;;;;;;;;;;15.30;99.90;;;;;;5074475;28;19929;-68
2022/11/03 14:21:36;;;;;;;;;;;15.30;99.90;;;;;;5073762;28;19924;-69
2022/11/03 14:24:03;;;;;;;;;;;15.20;99.90;;;;;;5107274;28;19947;-68
2022/11/03 14:26:29;;;;;;;;;;;15.20;99.90;;;;;;5074599;28;19967;-68
2022/11/03 14:28:54;;;;;;;;;;;15.20;99.90;;;;;;5073326;28;20364;-68
2022/11/03 14:31:20;;;;;;;;;;;15.10;99.90;;;;;;5074530;28;19989;-68
2022/11/03 14:33:45;;;;;;;;;;;15.10;99.90;;;;;;5074464;28;20390;-68
2022/11/03 14:36:11;;;;;;;;;;;15.10;99.90;;;;;;5106760;28;20326;-68
2022/11/03 14:38:36;;;;;;;;;;;15.20;99.90;;;;;;5106843;28;19925;-69
2022/11/03 14:43:46;;;;;;;;;;;15.10;99.90;;;;;;5074120;28;19977;-69
2022/11/03 14:46:12;;;;;;;;;;;15.00;99.90;;;;;;5073906;28;19928;-69